Time;durP1;ratioP1;P1;durP2;ratioP2;P2;SDS_P1;SDS_P2;PMS_P1;PMS_P2;Temp;Humidity;BMP_temperature;BMP_pressure;BME280_temperature;BME280_humidity;BME280_pressure;Samples;Min_cycle;Max_cycle;Signal;HPM_P1;HPM_P2
2021/09/10 00:02:07;;;;;;;18.17;16.37;;;;;;;;;;5039273;28;20412;-75
2021/09/10 00:04:33;;;;;;;18.43;16.83;;;;;;;;;;5039029;28;20416;-73
2021/09/10 00:06:59;;;;;;;18.27;16.50;;;;;;;;;;5038699;28;20432;-76
2021/09/10 00:09:25;;;;;;;17.23;15.60;;;;;;;;;;5029280;28;20834;-77
2021/09/10 00:11:51;;;;;;;18.13;16.47;;;;;;;;;;5038573;28;20474;-73
2021/09/10 00:14:17;;;;;;;19.07;17.13;;;;;;;;;;5036290;28;20827;-74
2021/09/10 00:16:43;;;;;;;18.00;16.30;;;;;;;;;;5037996;28;20466;-74
2021/09/10 00:19:09;;;;;;;19.30;17.40;;;;;;;;;;5039050;28;20925;-74
2021/09/10 00:21:35;;;;;;;20.70;18.50;;;;;;;;;;5028175;28;20416;-72
2021/09/10 00:24:01;;;;;;;19.10;17.40;;;;;;;;;;5039041;28;20423;-73
2021/09/10 00:26:27;;;;;;;20.00;18.10;;;;;;;;;;5035034;28;20512;-74
2021/09/10 00:28:53;;;;;;;19.57;17.67;;;;;;;;;;5035307;28;20460;-75
2021/09/10 00:31:19;;;;;;;20.70;17.87;;;;;;;;;;5035695;28;20416;-74
2021/09/10 00:33:45;;;;;;;18.70;17.00;;;;;;;;;;5035744;28;20518;-76
2021/09/10 00:36:11;;;;;;;20.10;18.00;;;;;;;;;;5035515;28;20419;-76
2021/09/10 00:38:37;;;;;;;20.87;18.60;;;;;;;;;;5035202;28;20762;-72
2021/09/10 00:41:03;;;;;;;20.40;18.40;;;;;;;;;;5035269;28;20816;-75
2021/09/10 00:43:30;;;;;;;20.80;18.90;;;;;;;;;;5035640;28;20413;-76
2021/09/10 00:45:57;;;;;;;21.10;18.23;;;;;;;;;;5035251;28;20408;-74
2021/09/10 00:48:23;;;;;;;20.73;18.73;;;;;;;;;;5035432;28;20439;-75
2021/09/10 00:50:49;;;;;;;20.90;18.90;;;;;;;;;;5032740;28;20447;-74
2021/09/10 00:53:17;;;;;;;23.33;20.97;;;;;;;;;;5035140;28;20460;-74
2021/09/10 00:55:44;;;;;;;21.57;19.47;;;;;;;;;;5031382;28;20396;-75
2021/09/10 00:58:11;;;;;;;20.93;19.00;;;;;;;;;;5030088;28;20406;-76
2021/09/10 01:00:37;;;;;;;20.43;18.53;;;;;;;;;;5035349;28;20463;-75
2021/09/10 01:03:03;;;;;;;19.73;18.00;;;;;;;;;;5035155;28;20782;-77
2021/09/10 01:05:29;;;;;;;17.63;16.13;;;;;;;;;;5034998;28;20419;-73
2021/09/10 01:07:57;;;;;;;20.10;18.13;;;;;;;;;;5034806;28;20933;-74
2021/09/10 01:10:23;;;;;;;20.23;18.33;;;;;;;;;;5044157;28;20471;-75
2021/09/10 01:12:50;;;;;;;19.27;17.47;;;;;;;;;;5035049;28;20494;-74
2021/09/10 01:15:16;;;;;;;19.90;17.83;;;;;;;;;;5019915;28;20424;-77
2021/09/10 01:17:42;;;;;;;19.10;17.30;;;;;;;;;;5035996;28;20758;-73
2021/09/10 01:20:09;;;;;;;19.57;17.77;;;;;;;;;;5034701;28;20437;-74
2021/09/10 01:22:36;;;;;;;20.33;17.80;;;;;;;;;;5035079;28;20421;-75
2021/09/10 01:25:03;;;;;;;19.63;17.80;;;;;;;;;;5034680;28;20419;-74
2021/09/10 01:27:29;;;;;;;20.30;18.40;;;;;;;;;;5034588;28;20502;-74
2021/09/10 01:29:55;;;;;;;19.80;18.00;;;;;;;;;;5033211;28;20809;-76
2021/09/10 01:32:21;;;;;;;19.83;17.80;;;;;;;;;;5034976;28;20456;-73
2021/09/10 01:34:47;;;;;;;19.17;17.17;;;;;;;;;;5034383;28;20405;-76
2021/09/10 01:37:13;;;;;;;19.33;17.27;;;;;;;;;;5032960;28;20419;-73
2021/09/10 01:39:39;;;;;;;21.47;19.37;;;;;;;;;;5023424;28;20433;-74
2021/09/10 01:42:05;;;;;;;20.30;18.50;;;;;;;;;;5034412;28;20901;-74
2021/09/10 01:44:31;;;;;;;20.40;18.50;;;;;;;;;;5034528;28;20747;-75
2021/09/10 01:46:57;;;;;;;20.97;18.80;;;;;;;;;;5034083;28;20507;-75
2021/09/10 01:49:23;;;;;;;21.00;18.97;;;;;;;;;;5034046;28;20515;-73
2021/09/10 01:51:49;;;;;;;21.37;19.30;;;;;;;;;;5034113;28;20467;-74
2021/09/10 01:54:15;;;;;;;20.50;18.53;;;;;;;;;;5034632;28;20444;-76
2021/09/10 01:56:41;;;;;;;21.47;19.40;;;;;;;;;;5027069;28;20409;-76
2021/09/10 01:59:07;;;;;;;20.23;18.10;;;;;;;;;;5033433;28;21052;-76
2021/09/10 02:01:34;;;;;;;19.80;17.93;;;;;;;;;;5033799;28;20413;-73
2021/09/10 02:04:01;;;;;;;21.30;19.20;;;;;;;;;;5034131;28;20424;-74
2021/09/10 02:06:27;;;;;;;21.50;19.27;;;;;;;;;;5033725;28;20960;-74
2021/09/10 02:08:53;;;;;;;20.67;18.77;;;;;;;;;;5033584;28;20435;-73
2021/09/10 02:11:19;;;;;;;19.30;17.30;;;;;;;;;;5034021;28;20459;-75
2021/09/10 02:13:45;;;;;;;23.17;20.87;;;;;;;;;;5033892;28;20555;-75
2021/09/10 02:16:11;;;;;;;23.10;20.93;;;;;;;;;;5023553;28;20427;-74
2021/09/10 02:18:38;;;;;;;20.80;18.77;;;;;;;;;;5033355;28;20428;-74
2021/09/10 02:21:04;;;;;;;21.57;19.47;;;;;;;;;;5033750;28;21744;-72
2021/09/10 02:23:30;;;;;;;21.47;19.37;;;;;;;;;;5033610;28;20448;-75
2021/09/10 02:25:57;;;;;;;21.73;19.70;;;;;;;;;;5033710;28;20412;-76
2021/09/10 02:28:23;;;;;;;20.73;18.63;;;;;;;;;;5031986;28;20490;-72
2021/09/10 02:30:49;;;;;;;20.73;18.93;;;;;;;;;;5032939;28;20424;-74
2021/09/10 02:33:15;;;;;;;22.47;20.27;;;;;;;;;;5033718;28;20463;-72
2021/09/10 02:35:41;;;;;;;24.73;22.23;;;;;;;;;;5033427;28;20988;-72
2021/09/10 02:38:08;;;;;;;27.10;24.40;;;;;;;;;;5032995;28;20408;-77
2021/09/10 02:40:34;;;;;;;24.70;21.97;;;;;;;;;;5025300;28;20412;-76
2021/09/10 02:43:00;;;;;;;26.20;23.20;;;;;;;;;;5033252;28;20426;-74
2021/09/10 02:45:26;;;;;;;26.83;24.03;;;;;;;;;;5033544;28;20419;-75
2021/09/10 02:47:51;;;;;;;27.43;24.57;;;;;;;;;;5032581;28;20412;-73
2021/09/10 02:50:18;;;;;;;26.50;23.20;;;;;;;;;;5024552;28;20797;-74
2021/09/10 02:52:44;;;;;;;26.47;23.77;;;;;;;;;;5033042;28;20547;-72
2021/09/10 02:55:10;;;;;;;26.17;23.63;;;;;;;;;;5031753;28;20444;-75
2021/09/10 02:57:36;;;;;;;25.43;22.80;;;;;;;;;;5026996;28;20412;-71
2021/09/10 03:00:03;;;;;;;24.87;22.47;;;;;;;;;;5025588;28;20433;-73
2021/09/10 03:02:29;;;;;;;27.07;24.27;;;;;;;;;;5033239;28;20447;-73
2021/09/10 03:04:55;;;;;;;25.10;22.33;;;;;;;;;;5033446;28;20507;-74
2021/09/10 03:07:21;;;;;;;26.60;22.77;;;;;;;;;;5032475;28;20436;-74
2021/09/10 03:09:47;;;;;;;27.17;24.40;;;;;;;;;;5037465;28;20441;-76
2021/09/10 03:12:13;;;;;;;25.47;23.07;;;;;;;;;;5032856;28;20805;-77
2021/09/10 03:14:39;;;;;;;23.90;21.40;;;;;;;;;;5041507;28;20765;-72
2021/09/10 03:17:05;;;;;;;25.97;22.40;;;;;;;;;;5032674;28;20413;-74
2021/09/10 03:19:31;;;;;;;27.00;24.30;;;;;;;;;;5033117;28;20441;-74
2021/09/10 03:21:57;;;;;;;26.20;23.17;;;;;;;;;;5033213;28;20416;-74
2021/09/10 03:24:23;;;;;;;26.93;24.33;;;;;;;;;;5032801;28;20973;-75
2021/09/10 03:26:49;;;;;;;25.37;22.90;;;;;;;;;;5032560;28;20408;-74
2021/09/10 03:29:15;;;;;;;27.57;22.80;;;;;;;;;;5032880;28;20435;-75
2021/09/10 03:31:41;;;;;;;26.00;23.40;;;;;;;;;;5032764;28;20421;-72
2021/09/10 03:34:07;;;;;;;27.00;24.40;;;;;;;;;;5032818;28;20427;-74
2021/09/10 03:36:33;;;;;;;26.27;23.67;;;;;;;;;;5032662;28;20474;-74
2021/09/10 03:39:00;;;;;;;27.07;24.43;;;;;;;;;;5032618;28;20785;-74
2021/09/10 03:41:26;;;;;;;25.90;23.33;;;;;;;;;;5032658;28;20770;-74
2021/09/10 03:43:55;;;;;;;27.37;24.50;;;;;;;;;;5031794;28;20421;-75
2021/09/10 03:46:22;;;;;;;26.90;24.20;;;;;;;;;;5032607;28;20897;-73
2021/09/10 03:48:50;;;;;;;26.50;23.70;;;;;;;;;;5032175;28;20435;-73
2021/09/10 03:51:17;;;;;;;27.17;24.37;;;;;;;;;;5032408;28;20917;-75
2021/09/10 03:53:43;;;;;;;26.67;24.17;;;;;;;;;;5032577;28;20467;-75
2021/09/10 03:56:09;;;;;;;28.27;25.27;;;;;;;;;;5026476;28;20416;-75
2021/09/10 03:58:35;;;;;;;29.37;26.47;;;;;;;;;;5038621;28;20446;-72
2021/09/10 04:01:01;;;;;;;29.27;25.90;;;;;;;;;;5035320;28;20502;-74
2021/09/10 04:03:28;;;;;;;29.60;26.60;;;;;;;;;;5036491;28;20941;-77
2021/09/10 04:05:54;;;;;;;29.80;26.70;;;;;;;;;;5036476;28;20439;-73
2021/09/10 04:08:20;;;;;;;31.60;26.60;;;;;;;;;;5042383;28;20776;-73
2021/09/10 04:10:46;;;;;;;29.23;26.33;;;;;;;;;;5035992;28;20416;-74
2021/09/10 04:13:12;;;;;;;29.80;26.70;;;;;;;;;;5036223;28;20524;-74
2021/09/10 04:15:38;;;;;;;29.20;26.10;;;;;;;;;;5025832;28;20421;-75
2021/09/10 04:18:04;;;;;;;30.47;26.37;;;;;;;;;;5035917;28;20413;-73
2021/09/10 04:20:30;;;;;;;32.17;28.27;;;;;;;;;;5035986;28;20770;-73
2021/09/10 04:22:56;;;;;;;36.63;31.40;;;;;;;;;;5035978;28;20888;-74
2021/09/10 04:25:22;;;;;;;36.37;30.40;;;;;;;;;;5035980;28;20424;-75
2021/09/10 04:27:48;;;;;;;38.00;33.90;;;;;;;;;;5035696;28;20777;-73
2021/09/10 04:30:14;;;;;;;48.30;35.77;;;;;;;;;;5034152;28;20436;-71
2021/09/10 04:32:40;;;;;;;45.13;38.60;;;;;;;;;;5035568;28;20940;-74
2021/09/10 04:35:07;;;;;;;52.60;42.20;;;;;;;;;;5035666;28;20422;-73
2021/09/10 04:37:34;;;;;;;54.27;40.20;;;;;;;;;;5035468;28;20813;-71
2021/09/10 04:40:03;;;;;;;59.47;43.00;;;;;;;;;;5023699;28;20432;-70
2021/09/10 04:42:29;;;;;;;56.40;43.47;;;;;;;;;;5035666;28;20424;-71
2021/09/10 04:44:55;;;;;;;57.57;42.97;;;;;;;;;;5035317;28;20466;-75
2021/09/10 04:47:21;;;;;;;63.03;43.80;;;;;;;;;;5035092;28;20463;-73
2021/09/10 04:49:47;;;;;;;66.83;46.90;;;;;;;;;;5035361;28;20436;-71
2021/09/10 04:52:13;;;;;;;63.30;47.23;;;;;;;;;;5033916;28;20807;-70
2021/09/10 04:54:39;;;;;;;65.13;46.07;;;;;;;;;;5035241;28;20444;-72
2021/09/10 04:57:05;;;;;;;62.57;46.80;;;;;;;;;;5027961;28;20940;-70
2021/09/10 04:59:31;;;;;;;72.83;48.10;;;;;;;;;;5034732;28;20442;-73
2021/09/10 05:01:57;;;;;;;75.83;48.67;;;;;;;;;;5035605;28;20412;-74
2021/09/10 05:04:24;;;;;;;70.30;46.27;;;;;;;;;;5034958;28;20409;-71
2021/09/10 05:06:51;;;;;;;72.53;49.17;;;;;;;;;;5034720;28;20429;-74
2021/09/10 05:09:17;;;;;;;72.67;48.07;;;;;;;;;;5033369;28;20441;-71
2021/09/10 05:11:43;;;;;;;73.37;47.33;;;;;;;;;;5034722;28;20425;-73
2021/09/10 05:14:09;;;;;;;73.33;48.73;;;;;;;;;;5032691;28;20521;-71
2021/09/10 05:16:36;;;;;;;69.10;46.47;;;;;;;;;;5026169;28;20924;-71
2021/09/10 05:19:02;;;;;;;73.87;46.63;;;;;;;;;;5032532;28;20441;-75
2021/09/10 05:21:28;;;;;;;79.03;50.93;;;;;;;;;;5034853;28;20401;-74
2021/09/10 05:23:54;;;;;;;82.60;49.47;;;;;;;;;;5034599;28;20424;-73
2021/09/10 05:26:20;;;;;;;80.90;48.57;;;;;;;;;;5034787;28;20413;-74
2021/09/10 05:28:47;;;;;;;81.73;51.37;;;;;;;;;;5032372;28;20444;-74
2021/09/10 05:31:13;;;;;;;87.20;51.53;;;;;;;;;;5034285;28;20416;-73
2021/09/10 05:33:39;;;;;;;83.10;48.97;;;;;;;;;;5034552;28;20460;-75
2021/09/10 05:36:05;;;;;;;88.43;52.13;;;;;;;;;;5025933;28;20416;-72
2021/09/10 05:38:31;;;;;;;81.00;51.73;;;;;;;;;;5031525;28;20527;-74
2021/09/10 05:40:57;;;;;;;94.40;53.70;;;;;;;;;;5025844;28;20415;-73
2021/09/10 05:43:23;;;;;;;92.23;51.97;;;;;;;;;;5034254;28;20412;-71
2021/09/10 05:45:49;;;;;;;99.53;55.57;;;;;;;;;;5034479;28;20431;-71
2021/09/10 05:48:22;;;;;;;86.67;54.30;;;;;;;;;;5033838;28;20416;-71
2021/09/10 05:50:48;;;;;;;94.07;53.80;;;;;;;;;;5034587;28;20417;-73
2021/09/10 05:53:15;;;;;;;83.27;51.07;;;;;;;;;;5033903;28;20460;-74
2021/09/10 05:55:41;;;;;;;91.57;52.77;;;;;;;;;;5028407;28;20890;-74
2021/09/10 05:58:07;;;;;;;88.53;52.77;;;;;;;;;;5031609;28;20416;-71
2021/09/10 06:00:33;;;;;;;104.77;57.77;;;;;;;;;;5030372;28;20410;-74
2021/09/10 06:02:59;;;;;;;97.50;55.10;;;;;;;;;;5014408;28;20426;-75
2021/09/10 06:05:25;;;;;;;98.30;55.53;;;;;;;;;;5013932;28;21285;-73
2021/09/10 06:07:51;;;;;;;106.47;58.40;;;;;;;;;;5014084;28;20421;-70
2021/09/10 06:10:21;;;;;;;99.70;55.83;;;;;;;;;;5014095;28;20440;-74
2021/09/10 06:12:47;;;;;;;108.80;56.10;;;;;;;;;;5022500;28;20515;-71
2021/09/10 06:15:13;;;;;;;101.33;57.97;;;;;;;;;;5025970;28;20920;-71
2021/09/10 06:17:40;;;;;;;102.33;57.17;;;;;;;;;;5033871;28;20405;-73
2021/09/10 06:20:06;;;;;;;89.40;55.63;;;;;;;;;;5014628;28;20445;-73
2021/09/10 06:22:32;;;;;;;90.20;55.20;;;;;;;;;;5011874;28;20784;-75
2021/09/10 06:24:59;;;;;;;94.60;56.03;;;;;;;;;;5021984;28;20594;-72
2021/09/10 06:27:25;;;;;;;87.40;52.57;;;;;;;;;;5025908;28;20432;-73
2021/09/10 06:29:51;;;;;;;88.33;55.30;;;;;;;;;;5018565;28;20441;-71
2021/09/10 06:32:17;;;;;;;81.47;51.30;;;;;;;;;;5029491;28;20487;-72
2021/09/10 06:34:43;;;;;;;83.13;51.23;;;;;;;;;;5019056;28;20787;-70
2021/09/10 06:37:09;;;;;;;77.00;50.60;;;;;;;;;;5024181;28;20415;-71
2021/09/10 06:39:35;;;;;;;81.33;51.27;;;;;;;;;;5013402;28;20436;-70
2021/09/10 06:42:01;;;;;;;79.97;52.50;;;;;;;;;;5009967;28;21121;-70
2021/09/10 06:44:27;;;;;;;79.90;52.17;;;;;;;;;;5029300;28;20424;-70
2021/09/10 06:46:53;;;;;;;73.83;51.80;;;;;;;;;;5029444;28;20906;-72
2021/09/10 06:49:19;;;;;;;81.00;52.40;;;;;;;;;;5028113;28;20456;-73
2021/09/10 06:51:45;;;;;;;76.97;50.80;;;;;;;;;;5025449;28;20491;-73
2021/09/10 06:54:11;;;;;;;91.50;51.47;;;;;;;;;;5023696;28;20899;-73
2021/09/10 06:56:37;;;;;;;81.17;51.97;;;;;;;;;;5012531;28;20494;-70
2021/09/10 06:59:03;;;;;;;90.10;55.80;;;;;;;;;;5019601;28;20492;-70
2021/09/10 07:01:30;;;;;;;83.13;53.63;;;;;;;;;;5014826;28;20814;-71
2021/09/10 07:03:56;;;;;;;86.63;54.67;;;;;;;;;;5029279;28;20443;-72
2021/09/10 07:06:22;;;;;;;89.97;57.03;;;;;;;;;;5029380;28;20459;-72
2021/09/10 07:08:48;;;;;;;90.57;54.63;;;;;;;;;;5029045;28;20519;-70
2021/09/10 07:11:14;;;;;;;97.97;56.50;;;;;;;;;;5011354;28;20521;-73
2021/09/10 07:13:41;;;;;;;93.23;55.10;;;;;;;;;;5016704;28;20464;-70
2021/09/10 07:16:07;;;;;;;89.67;54.53;;;;;;;;;;5011449;28;20920;-70
2021/09/10 07:18:33;;;;;;;85.90;52.67;;;;;;;;;;5009426;28;20499;-69
2021/09/10 07:21:02;;;;;;;90.63;54.20;;;;;;;;;;5009413;28;20441;-73
2021/09/10 07:23:30;;;;;;;113.27;62.07;;;;;;;;;;5009937;28;20767;-72
2021/09/10 07:25:59;;;;;;;103.83;58.90;;;;;;;;;;5009704;28;20430;-72
2021/09/10 07:28:25;;;;;;;93.37;52.70;;;;;;;;;;5012712;28;20968;-71
2021/09/10 07:30:51;;;;;;;92.03;55.50;;;;;;;;;;5009760;28;20426;-71
2021/09/10 07:33:17;;;;;;;96.20;55.23;;;;;;;;;;5009502;28;20463;-73
2021/09/10 07:35:43;;;;;;;91.60;54.40;;;;;;;;;;5012659;28;20413;-70
2021/09/10 07:38:09;;;;;;;84.47;52.70;;;;;;;;;;5013034;28;20413;-70
2021/09/10 07:40:35;;;;;;;78.37;51.40;;;;;;;;;;5013411;28;20421;-71
2021/09/10 07:43:01;;;;;;;97.87;52.90;;;;;;;;;;5013485;28;20413;-73
2021/09/10 07:45:27;;;;;;;89.33;53.30;;;;;;;;;;5017165;28;20426;-71
2021/09/10 07:47:53;;;;;;;95.50;54.67;;;;;;;;;;5020277;28;20837;-74
2021/09/10 07:50:19;;;;;;;97.77;56.33;;;;;;;;;;5013050;28;20437;-72
2021/09/10 07:52:45;;;;;;;90.33;54.10;;;;;;;;;;5013258;28;20515;-73
2021/09/10 07:55:12;;;;;;;89.53;55.87;;;;;;;;;;5013109;28;20783;-71
2021/09/10 07:57:38;;;;;;;82.90;51.27;;;;;;;;;;5012732;28;20818;-74
2021/09/10 08:00:04;;;;;;;87.53;53.70;;;;;;;;;;5031489;28;20436;-72
2021/09/10 08:02:31;;;;;;;94.53;53.70;;;;;;;;;;5032896;28;20460;-72
2021/09/10 08:04:57;;;;;;;94.30;55.10;;;;;;;;;;5032858;28;20497;-70
2021/09/10 08:07:23;;;;;;;89.43;54.37;;;;;;;;;;5032117;28;20430;-71
2021/09/10 08:09:49;;;;;;;88.87;57.07;;;;;;;;;;5012674;28;20450;-72
2021/09/10 08:12:15;;;;;;;94.20;60.77;;;;;;;;;;5013629;28;20953;-71
2021/09/10 08:14:41;;;;;;;86.97;57.80;;;;;;;;;;5021621;28;20417;-73
2021/09/10 08:17:07;;;;;;;87.80;56.87;;;;;;;;;;5012377;28;20426;-71
2021/09/10 08:19:33;;;;;;;68.30;48.97;;;;;;;;;;5020284;28;20434;-72
2021/09/10 08:21:59;;;;;;;88.77;55.60;;;;;;;;;;5032164;28;20416;-72
2021/09/10 08:24:25;;;;;;;61.60;42.97;;;;;;;;;;5032178;28;20449;-70
2021/09/10 08:26:51;;;;;;;51.10;36.70;;;;;;;;;;5031933;28;20575;-72
2021/09/10 08:29:17;;;;;;;44.33;32.60;;;;;;;;;;5025684;28;20425;-73
2021/09/10 08:31:43;;;;;;;40.00;27.70;;;;;;;;;;5012518;28;20425;-73
2021/09/10 08:34:09;;;;;;;35.17;27.00;;;;;;;;;;5012180;28;20524;-72
2021/09/10 08:36:35;;;;;;;38.10;28.93;;;;;;;;;;5014933;28;20414;-71
2021/09/10 08:39:01;;;;;;;35.73;28.60;;;;;;;;;;5012260;28;20646;-73
2021/09/10 08:41:28;;;;;;;36.70;28.27;;;;;;;;;;5012298;28;20449;-72
2021/09/10 08:43:59;;;;;;;36.17;27.00;;;;;;;;;;5018709;28;20462;-71
2021/09/10 08:46:25;;;;;;;41.47;28.67;;;;;;;;;;5030941;28;20432;-71
2021/09/10 08:48:51;;;;;;;39.43;29.80;;;;;;;;;;5031571;28;20436;-70
2021/09/10 08:51:18;;;;;;;38.13;26.50;;;;;;;;;;5031831;28;20442;-72
2021/09/10 08:53:44;;;;;;;39.50;28.90;;;;;;;;;;5031602;28;20478;-72
2021/09/10 08:56:10;;;;;;;39.90;29.17;;;;;;;;;;5022845;28;20795;-70
2021/09/10 08:58:36;;;;;;;44.20;30.53;;;;;;;;;;5025575;28;20438;-69
2021/09/10 09:01:02;;;;;;;41.00;29.77;;;;;;;;;;5011554;28;20417;-72
2021/09/10 09:03:30;;;;;;;101.40;75.87;;;;;;;;;;5011864;28;20818;-71
2021/09/10 09:05:56;;;;;;;32.80;25.30;;;;;;;;;;5011785;28;20437;-71
2021/09/10 09:08:22;;;;;;;29.57;22.63;;;;;;;;;;5011209;28;20421;-71
2021/09/10 09:11:09;;;;;;;35.60;24.77;;;;;;;;;;5017329;28;20412;-71
2021/09/10 09:13:44;;;;;;;35.60;26.10;;;;;;;;;;5024530;28;20463;-69
2021/09/10 09:16:10;;;;;;;28.60;21.30;;;;;;;;;;5032677;28;20420;-71
2021/09/10 09:18:44;;;;;;;30.90;24.77;;;;;;;;;;5030762;28;20459;-69
2021/09/10 09:21:10;;;;;;;38.77;30.20;;;;;;;;;;5031184;28;20413;-72
2021/09/10 09:23:36;;;;;;;25.80;20.33;;;;;;;;;;5031177;28;20420;-71
2021/09/10 09:26:13;;;;;;;33.87;21.73;;;;;;;;;;5031046;28;20459;-72
2021/09/10 09:28:39;;;;;;;22.23;17.83;;;;;;;;;;5030352;28;20464;-70
2021/09/10 09:31:08;;;;;;;26.40;19.33;;;;;;;;;;5023215;28;20452;-72
2021/09/10 09:33:35;;;;;;;26.83;19.60;;;;;;;;;;5011110;28;20465;-72
2021/09/10 09:36:02;;;;;;;29.70;20.40;;;;;;;;;;5010726;28;20536;-72
2021/09/10 09:38:30;;;;;;;28.83;21.07;;;;;;;;;;5010587;28;20461;-70
2021/09/10 09:40:57;;;;;;;28.47;21.20;;;;;;;;;;5009625;28;20479;-71
2021/09/10 09:43:24;;;;;;;29.97;20.63;;;;;;;;;;5010847;28;20413;-71
2021/09/10 09:45:52;;;;;;;26.17;20.87;;;;;;;;;;5010938;28;20480;-70
2021/09/10 09:48:19;;;;;;;29.07;21.40;;;;;;;;;;5010425;28;20422;-71
2021/09/10 09:50:45;;;;;;;29.37;21.57;;;;;;;;;;5010771;28;20425;-71
2021/09/10 09:53:14;;;;;;;28.30;21.07;;;;;;;;;;5023907;28;20483;-70
2021/09/10 09:55:41;;;;;;;37.67;28.67;;;;;;;;;;5010894;28;20874;-70
2021/09/10 09:58:08;;;;;;;32.30;23.47;;;;;;;;;;5024242;28;20420;-71
2021/09/10 10:00:37;;;;;;;27.90;22.10;;;;;;;;;;5010705;28;20425;-71
2021/09/10 10:03:03;;;;;;;38.30;29.83;;;;;;;;;;5010454;28;20418;-71
2021/09/10 10:05:30;;;;;;;37.80;28.77;;;;;;;;;;5010617;28;20425;-71
2021/09/10 10:08:07;;;;;;;31.40;23.70;;;;;;;;;;5009994;28;20425;-73
2021/09/10 10:10:35;;;;;;;32.90;24.43;;;;;;;;;;5010470;28;20559;-72
2021/09/10 10:13:02;;;;;;;31.90;23.30;;;;;;;;;;5014038;28;20527;-70
2021/09/10 10:15:29;;;;;;;36.53;23.53;;;;;;;;;;5037229;28;20423;-72
2021/09/10 10:17:56;;;;;;;28.53;21.07;;;;;;;;;;5029479;28;20413;-72
2021/09/10 10:20:40;;;;;;;26.20;19.47;;;;;;;;;;5029807;28;20989;-71
2021/09/10 10:23:26;;;;;;;26.67;20.40;;;;;;;;;;5010264;28;20496;-71
2021/09/10 10:26:08;;;;;;;28.53;20.47;;;;;;;;;;5010109;28;20456;-72
2021/09/10 10:28:48;;;;;;;23.83;19.30;;;;;;;;;;5010640;28;20470;-71
2021/09/10 10:31:15;;;;;;;23.37;19.50;;;;;;;;;;5016690;28;21267;-71
2021/09/10 10:33:50;;;;;;;21.80;19.50;;;;;;;;;;5017654;28;21000;-70
2021/09/10 10:36:36;;;;;;;21.73;19.60;;;;;;;;;;5010035;28;20508;-71
2021/09/10 10:39:08;;;;;;;18.37;15.30;;;;;;;;;;5008340;28;20465;-70
2021/09/10 10:41:48;;;;;;;18.43;16.53;;;;;;;;;;5010568;28;20427;-72
2021/09/10 10:44:40;;;;;;;23.23;19.90;;;;;;;;;;5009954;28;20429;-73
2021/09/10 10:47:20;;;;;;;17.63;15.70;;;;;;;;;;5016426;28;20771;-72
2021/09/10 10:49:47;;;;;;;16.27;14.57;;;;;;;;;;5029493;28;20809;-69
2021/09/10 10:52:28;;;;;;;18.37;16.27;;;;;;;;;;5029533;28;20805;-73
2021/09/10 10:55:13;;;;;;;19.20;17.30;;;;;;;;;;5029437;28;20416;-71
2021/09/10 10:57:39;;;;;;;18.27;16.43;;;;;;;;;;5014513;28;20524;-71
2021/09/10 11:00:24;;;;;;;17.93;15.80;;;;;;;;;;5033262;28;20461;-71
2021/09/10 11:02:50;;;;;;;20.13;18.13;;;;;;;;;;5009580;28;20413;-72
2021/09/10 11:05:19;;;;;;;20.13;18.13;;;;;;;;;;5009623;28;20421;-72
2021/09/10 11:07:46;;;;;;;20.87;18.70;;;;;;;;;;5009295;28;20484;-70
2021/09/10 11:10:16;;;;;;;22.00;18.33;;;;;;;;;;5007904;28;20578;-73
2021/09/10 11:12:43;;;;;;;21.80;18.67;;;;;;;;;;5009522;28;20467;-73
2021/09/10 11:15:17;;;;;;;23.07;19.63;;;;;;;;;;5025185;28;20448;-72
2021/09/10 11:17:43;;;;;;;24.73;19.97;;;;;;;;;;5011069;28;20499;-72
2021/09/10 11:20:09;;;;;;;21.40;19.10;;;;;;;;;;5016710;28;20433;-71
2021/09/10 11:22:46;;;;;;;20.63;18.00;;;;;;;;;;5009618;28;21123;-72
2021/09/10 11:25:12;;;;;;;22.30;19.90;;;;;;;;;;5009457;28;20424;-72
2021/09/10 11:27:39;;;;;;;24.50;21.87;;;;;;;;;;5009247;28;20559;-71
2021/09/10 11:30:09;;;;;;;25.27;22.03;;;;;;;;;;5021572;28;20767;-72
2021/09/10 11:32:35;;;;;;;25.10;20.63;;;;;;;;;;5009910;28;20531;-73
2021/09/10 11:35:01;;;;;;;20.97;18.60;;;;;;;;;;5009333;28;20818;-71
2021/09/10 11:37:29;;;;;;;21.43;19.23;;;;;;;;;;5009066;28;20873;-72
2021/09/10 11:39:55;;;;;;;21.33;19.13;;;;;;;;;;5010268;28;20480;-73
2021/09/10 11:42:31;;;;;;;21.47;18.10;;;;;;;;;;5029189;28;20781;-72
2021/09/10 11:45:01;;;;;;;18.83;16.97;;;;;;;;;;5028779;28;20522;-74
2021/09/10 11:47:27;;;;;;;19.57;17.67;;;;;;;;;;5022079;28;20426;-73
2021/09/10 11:50:04;;;;;;;15.40;13.00;;;;;;;;;;5009158;28;20441;-73
2021/09/10 11:52:31;;;;;;;12.80;11.70;;;;;;;;;;5009231;28;20810;-73
2021/09/10 11:55:14;;;;;;;9.33;8.53;;;;;;;;;;5009014;28;20814;-73
2021/09/10 11:57:41;;;;;;;11.17;10.07;;;;;;;;;;5010232;28;20901;-72
2021/09/10 12:00:08;;;;;;;8.63;7.93;;;;;;;;;;5008896;28;20449;-73
2021/09/10 12:02:34;;;;;;;10.17;9.17;;;;;;;;;;5009132;28;20414;-72
2021/09/10 12:05:02;;;;;;;8.90;8.10;;;;;;;;;;5009108;28;20471;-72
2021/09/10 12:07:29;;;;;;;8.00;7.20;;;;;;;;;;5008612;28;20441;-73
2021/09/10 12:09:55;;;;;;;8.00;7.40;;;;;;;;;;5008875;28;20441;-73
2021/09/10 12:12:23;;;;;;;7.50;6.73;;;;;;;;;;5008721;28;20421;-72
2021/09/10 12:14:55;;;;;;;6.77;6.17;;;;;;;;;;5027402;28;20436;-73
2021/09/10 12:17:24;;;;;;;6.97;6.37;;;;;;;;;;5008690;28;20447;-73
2021/09/10 12:20:06;;;;;;;7.60;6.90;;;;;;;;;;5008956;28;20450;-72
2021/09/10 12:22:32;;;;;;;7.97;6.47;;;;;;;;;;5011656;28;20428;-73
2021/09/10 12:25:17;;;;;;;6.50;6.00;;;;;;;;;;5012554;28;20425;-72
2021/09/10 12:27:43;;;;;;;6.13;5.63;;;;;;;;;;5019032;28;20951;-73
2021/09/10 12:30:10;;;;;;;6.00;5.50;;;;;;;;;;5031967;28;20443;-73
2021/09/10 12:32:36;;;;;;;5.43;5.03;;;;;;;;;;5032142;28;20493;-74
2021/09/10 12:35:02;;;;;;;5.27;4.83;;;;;;;;;;5029143;28;20459;-73
2021/09/10 12:37:31;;;;;;;7.70;6.97;;;;;;;;;;5012018;28;20449;-73
2021/09/10 12:39:57;;;;;;;7.50;6.80;;;;;;;;;;5013373;28;20480;-73
2021/09/10 12:42:23;;;;;;;8.27;7.47;;;;;;;;;;5031952;28;20444;-74
2021/09/10 12:44:49;;;;;;;7.80;7.20;;;;;;;;;;5031754;28;20428;-73
2021/09/10 12:47:16;;;;;;;7.10;6.60;;;;;;;;;;5031489;28;20412;-74
2021/09/10 12:49:42;;;;;;;7.40;6.70;;;;;;;;;;5025463;28;20484;-73
2021/09/10 12:52:08;;;;;;;7.03;6.37;;;;;;;;;;5023564;28;20460;-72
2021/09/10 12:54:34;;;;;;;6.57;5.87;;;;;;;;;;5011923;28;21029;-72
2021/09/10 12:57:01;;;;;;;6.93;6.40;;;;;;;;;;5011515;28;20537;-72
2021/09/10 12:59:27;;;;;;;6.63;6.13;;;;;;;;;;5013237;28;20472;-73
2021/09/10 13:01:53;;;;;;;6.77;6.20;;;;;;;;;;5011789;28;20476;-73
2021/09/10 13:04:19;;;;;;;6.93;6.43;;;;;;;;;;5011755;28;20461;-72
2021/09/10 13:06:45;;;;;;;6.40;5.90;;;;;;;;;;5011261;28;20449;-73
2021/09/10 13:09:12;;;;;;;6.77;6.17;;;;;;;;;;5013292;28;20802;-72
2021/09/10 13:11:38;;;;;;;6.23;5.63;;;;;;;;;;5011743;28;20436;-72
2021/09/10 13:14:04;;;;;;;5.77;5.37;;;;;;;;;;5032851;28;20935;-72
2021/09/10 13:16:30;;;;;;;6.37;5.87;;;;;;;;;;5011679;28;20453;-72
2021/09/10 13:18:56;;;;;;;6.20;5.70;;;;;;;;;;5011065;28;20476;-73
2021/09/10 13:21:22;;;;;;;6.13;5.53;;;;;;;;;;5011519;28;20707;-73
2021/09/10 13:23:48;;;;;;;6.73;6.13;;;;;;;;;;5011927;28;20434;-73
2021/09/10 13:26:14;;;;;;;6.10;5.60;;;;;;;;;;5010007;28;21089;-73
2021/09/10 13:28:40;;;;;;;7.17;6.57;;;;;;;;;;5011492;28;20449;-71
2021/09/10 13:31:07;;;;;;;7.43;6.83;;;;;;;;;;5011210;28;20483;-73
2021/09/10 13:33:33;;;;;;;7.97;7.30;;;;;;;;;;5010816;28;20471;-73
2021/09/10 13:35:59;;;;;;;7.33;6.73;;;;;;;;;;5013599;28;20449;-72
2021/09/10 13:38:25;;;;;;;6.60;6.00;;;;;;;;;;5016296;28;20461;-73
2021/09/10 13:40:51;;;;;;;7.50;6.80;;;;;;;;;;5020082;28;20420;-73
2021/09/10 13:43:17;;;;;;;7.90;7.27;;;;;;;;;;5030729;28;20766;-73
2021/09/10 13:45:44;;;;;;;8.60;6.67;;;;;;;;;;5021789;28;20421;-74
2021/09/10 13:48:09;;;;;;;7.53;6.83;;;;;;;;;;5010361;28;20421;-72
2021/09/10 13:50:36;;;;;;;7.20;6.60;;;;;;;;;;5010925;28;20425;-72
2021/09/10 13:53:02;;;;;;;6.83;6.23;;;;;;;;;;5009766;28;20991;-73
2021/09/10 13:55:28;;;;;;;8.20;7.40;;;;;;;;;;5010802;28;20448;-73
2021/09/10 13:57:54;;;;;;;7.10;6.50;;;;;;;;;;5010884;28;20419;-74
2021/09/10 14:00:20;;;;;;;7.03;6.33;;;;;;;;;;5010755;28;20433;-72
2021/09/10 14:02:46;;;;;;;6.73;6.13;;;;;;;;;;5013446;28;21076;-72
2021/09/10 14:05:12;;;;;;;6.37;5.90;;;;;;;;;;5021525;28;20437;-73
2021/09/10 14:07:39;;;;;;;6.53;6.03;;;;;;;;;;5028031;28;20463;-72
2021/09/10 14:10:05;;;;;;;6.10;5.50;;;;;;;;;;5022595;28;20429;-72
2021/09/10 14:12:31;;;;;;;6.60;6.00;;;;;;;;;;5015604;28;20551;-74
2021/09/10 14:14:57;;;;;;;6.10;5.60;;;;;;;;;;5028013;28;20425;-72
2021/09/10 14:17:23;;;;;;;7.23;6.13;;;;;;;;;;5013539;28;21298;-73
2021/09/10 14:19:49;;;;;;;6.43;5.97;;;;;;;;;;5013673;28;20437;-72
2021/09/10 14:22:15;;;;;;;6.30;5.80;;;;;;;;;;5010904;28;20822;-73